Dades meteomassalio
Diari Summary for Juny 7, 2017 Units:  Metric    English   Both
« Previous Day
Next Day »
Diari Semanal Mensual Anual Personalitzat
  Maxima: Minima: Mijana:
Temperatura: 28.3 °C 12.6 °C 19.9 °C
Rosada: 16.6 °C 7.7 °C 11.2 °C
Humitat: 81 % 35 % 59 %
Velocitat del vent: 25.9 km/h 0.0 km/h 10 km/h
Racha vent: 25.9 km/h - -
Vent:- - SSW
Pressio: 1022.9 hPa 1017.5 hPa -
Pluja: 0.0 mm    
Historical Graphs
 
 
Tabular Data for Juny 7, 2017
Time Temperature Dew Point Pressure Wind Wind Speed Wind Gust Humidity Rainfall Rate (Hourly) solar Conditions
00:01 17.4 °C 10.9 °C 1019.5 hPa WNW 5.6 km/h 5.6 km/h 66 % 0.0 mm 0.0 W/m2 CLR
00:06 17.3 °C 10.9 °C 1019.5 hPa WNW 11.1 km/h 11.1 km/h 66 % 0.0 mm 0.0 W/m2 CLR
00:11 17.2 °C 10.8 °C 1019.5 hPa WNW 7.4 km/h 7.4 km/h 66 % 0.0 mm 0.0 W/m2 CLR
00:16 17.2 °C 10.6 °C 1019.9 hPa West 7.4 km/h 7.4 km/h 65 % 0.0 mm 0.0 W/m2 CLR
00:21 17.1 °C 10.5 °C 1019.9 hPa WNW 11.1 km/h 11.1 km/h 65 % 0.0 mm 0.0 W/m2 CLR
00:26 17.1 °C 10.2 °C 1019.9 hPa NW 18.5 km/h 18.5 km/h 64 % 0.0 mm 0.0 W/m2 CLR
00:31 17.0 °C 10.1 °C 1019.9 hPa WNW 18.5 km/h 18.5 km/h 64 % 0.0 mm 0.0 W/m2 CLR
00:37 16.9 °C 10.3 °C 1019.9 hPa WNW 20.4 km/h 20.4 km/h 65 % 0.0 mm 0.0 W/m2 CLR
00:42 16.9 °C 10.3 °C 1019.9 hPa WNW 20.4 km/h 20.4 km/h 65 % 0.0 mm 0.0 W/m2 CLR
00:47 16.9 °C 10.3 °C 1019.9 hPa WNW 20.4 km/h 20.4 km/h 65 % 0.0 mm 0.0 W/m2 CLR
00:52 16.8 °C 10.2 °C 1019.9 hPa West 13.0 km/h 13.0 km/h 65 % 0.0 mm 0.0 W/m2 CLR
00:57 16.8 °C 10.7 °C 1020.2 hPa West 11.1 km/h 11.1 km/h 67 % 0.0 mm 0.0 W/m2 CLR
01:02 16.7 °C 10.6 °C 1020.2 hPa West 20.4 km/h 20.4 km/h 67 % 0.0 mm 0.0 W/m2 CLR
01:07 16.7 °C 10.6 °C 1020.2 hPa West 18.5 km/h 18.5 km/h 67 % 0.0 mm 0.0 W/m2 CLR
01:12 16.6 °C 10.4 °C 1020.2 hPa West 20.4 km/h 20.4 km/h 67 % 0.0 mm 0.0 W/m2 CLR
01:17 16.6 °C 10.4 °C 1020.2 hPa WSW 18.5 km/h 18.5 km/h 67 % 0.0 mm 0.0 W/m2 CLR
01:22 16.5 °C 10.3 °C 1020.2 hPa WNW 22.2 km/h 22.2 km/h 67 % 0.0 mm 0.0 W/m2 CLR
01:27 16.4 °C 10.2 °C 1020.2 hPa West 18.5 km/h 18.5 km/h 67 % 0.0 mm 0.0 W/m2 CLR
01:32 16.3 °C 9.9 °C 1020.2 hPa West 24.1 km/h 24.1 km/h 66 % 0.0 mm 0.0 W/m2 CLR
01:37 16.3 °C 9.9 °C 1019.9 hPa West 22.2 km/h 22.2 km/h 66 % 0.0 mm 0.0 W/m2 CLR
01:42 16.2 °C 9.6 °C 1020.2 hPa West 20.4 km/h 20.4 km/h 65 % 0.0 mm 0.0 W/m2 CLR
01:47 16.1 °C 9.5 °C 1020.2 hPa West 20.4 km/h 20.4 km/h 65 % 0.0 mm 0.0 W/m2 CLR
01:52 16.1 °C 9.2 °C 1020.2 hPa West 20.4 km/h 20.4 km/h 64 % 0.0 mm 0.0 W/m2 CLR
01:57 16.0 °C 8.9 °C 1020.2 hPa West 24.1 km/h 24.1 km/h 63 % 0.0 mm 0.0 W/m2 CLR
02:02 15.9 °C 8.6 °C 1020.2 hPa WSW 18.5 km/h 18.5 km/h 62 % 0.0 mm 0.0 W/m2 CLR
02:07 15.8 °C 8.6 °C 1020.2 hPa WSW 9.3 km/h 9.3 km/h 62 % 0.0 mm 0.0 W/m2 CLR
02:12 15.8 °C 8.3 °C 1020.5 hPa WSW 11.3 km/h 11.3 km/h 61 % 0.0 mm 0.0 W/m2 CLR
02:17 15.7 °C 8.4 °C 1020.5 hPa West 8.0 km/h 8.0 km/h 62 % 0.0 mm 0.0 W/m2 CLR
02:22 15.6 °C 8.8 °C 1020.5 hPa West 8.0 km/h 8.0 km/h 64 % 0.0 mm 0.0 W/m2 CLR
02:27 15.5 °C 8.9 °C 1020.5 hPa WNW 9.3 km/h 9.3 km/h 65 % 0.0 mm 0.0 W/m2 CLR
02:32 15.4 °C 9.1 °C 1020.5 hPa West 3.2 km/h 3.2 km/h 66 % 0.0 mm 0.0 W/m2 CLR
02:37 15.5 °C 9.4 °C 1020.5 hPa WSW 11.3 km/h 11.3 km/h 67 % 0.0 mm 0.0 W/m2 CLR
02:42 15.5 °C 9.4 °C 1020.5 hPa West 9.3 km/h 9.3 km/h 67 % 0.0 mm 0.0 W/m2 CLR
02:47 15.5 °C 9.4 °C 1020.5 hPa West 13.0 km/h 13.0 km/h 67 % 0.0 mm 0.0 W/m2 CLR
02:52 15.4 °C 9.6 °C 1020.5 hPa WNW 20.9 km/h 20.9 km/h 68 % 0.0 mm 0.0 W/m2 CLR
02:57 15.3 °C 9.2 °C 1020.5 hPa West 18.5 km/h 18.5 km/h 67 % 0.0 mm 0.0 W/m2 CLR
03:02 15.3 °C 9.2 °C 1020.5 hPa WNW 20.4 km/h 20.4 km/h 67 % 0.0 mm 0.0 W/m2 CLR
03:07 15.3 °C 8.9 °C 1020.5 hPa West 13.0 km/h 13.0 km/h 66 % 0.0 mm 0.0 W/m2 CLR
03:12 15.2 °C 9.1 °C 1020.5 hPa WSW 9.3 km/h 9.3 km/h 67 % 0.0 mm 0.0 W/m2 CLR
03:17 15.2 °C 8.8 °C 1020.5 hPa West 11.1 km/h 11.1 km/h 66 % 0.0 mm 0.0 W/m2 CLR
03:22 15.1 °C 8.8 °C 1020.5 hPa WSW 9.3 km/h 9.3 km/h 66 % 0.0 mm 0.0 W/m2 CLR
03:27 15.1 °C 8.7 °C 1020.5 hPa West 7.4 km/h 7.4 km/h 66 % 0.0 mm 0.0 W/m2 CLR
03:32 15.0 °C 8.7 °C 1020.5 hPa WSW 18.5 km/h 18.5 km/h 66 % 0.0 mm 0.0 W/m2 CLR
03:37 15.0 °C 8.4 °C 1020.5 hPa West 9.3 km/h 9.3 km/h 65 % 0.0 mm 0.0 W/m2 CLR
03:42 14.9 °C 8.4 °C 1020.5 hPa West 19.3 km/h 19.3 km/h 65 % 0.0 mm 0.0 W/m2 CLR
03:47 14.9 °C 8.4 °C 1020.9 hPa WSW 6.4 km/h 6.4 km/h 65 % 0.0 mm 0.0 W/m2 CLR
03:52 14.8 °C 8.3 °C 1020.9 hPa West 5.6 km/h 5.6 km/h 65 % 0.0 mm 0.0 W/m2 CLR
03:57 14.7 °C 8.4 °C 1020.9 hPa SW 18.5 km/h 18.5 km/h 66 % 0.0 mm 0.0 W/m2 CLR
04:02 14.7 °C 8.2 °C 1020.9 hPa WSW 9.3 km/h 9.3 km/h 65 % 0.0 mm 0.0 W/m2 CLR
04:07 14.6 °C 8.3 °C 1020.9 hPa WSW 11.1 km/h 11.1 km/h 66 % 0.0 mm 0.0 W/m2 CLR
04:17 14.4 °C 8.3 °C 1020.9 hPa WNW 13.0 km/h 13.0 km/h 67 % 0.0 mm 0.0 W/m2 CLR
04:22 14.3 °C 8.3 °C 1020.9 hPa West 13.0 km/h 13.0 km/h 67 % 0.0 mm 0.0 W/m2 CLR
04:27 14.3 °C 8.0 °C 1020.9 hPa West 16.1 km/h 16.1 km/h 66 % 0.0 mm 0.0 W/m2 CLR
04:32 14.2 °C 7.9 °C 1020.9 hPa West 9.7 km/h 9.7 km/h 66 % 0.0 mm 0.0 W/m2 CLR
04:37 14.2 °C 7.9 °C 1020.9 hPa WSW 18.5 km/h 18.5 km/h 66 % 0.0 mm 0.0 W/m2 CLR
04:42 14.2 °C 7.9 °C 1021.2 hPa WSW 18.5 km/h 18.5 km/h 66 % 0.0 mm 0.0 W/m2 CLR
04:47 14.2 °C 7.9 °C 1021.2 hPa WSW 16.7 km/h 16.7 km/h 66 % 0.0 mm 0.0 W/m2 CLR
04:52 14.1 °C 8.0 °C 1021.2 hPa West 3.7 km/h 3.7 km/h 67 % 0.0 mm 0.0 W/m2 CLR
04:57 13.9 °C 7.8 °C 1021.2 hPa WSW 7.4 km/h 7.4 km/h 67 % 0.0 mm 0.0 W/m2 CLR
05:02 13.8 °C 7.8 °C 1021.2 hPa WSW 18.5 km/h 18.5 km/h 67 % 0.0 mm 0.0 W/m2 CLR
05:07 13.8 °C 7.8 °C 1021.6 hPa WSW 9.3 km/h 9.3 km/h 67 % 0.0 mm 0.0 W/m2 CLR
05:12 13.7 °C 7.9 °C 1021.2 hPa WSW 4.8 km/h 4.8 km/h 68 % 0.0 mm 0.0 W/m2 CLR
05:17 13.6 °C 7.8 °C 1021.6 hPa WSW 4.8 km/h 4.8 km/h 68 % 0.0 mm 0.0 W/m2 CLR
05:22 13.5 °C 7.7 °C 1021.6 hPa WSW 9.3 km/h 9.3 km/h 68 % 0.0 mm 0.0 W/m2 CLR
05:27 13.4 °C 8.0 °C 1021.6 hPa WSW 5.6 km/h 5.6 km/h 70 % 0.0 mm 0.0 W/m2 CLR
05:32 13.2 °C 7.9 °C 1021.6 hPa WSW 6.4 km/h 6.4 km/h 70 % 0.0 mm 0.0 W/m2 CLR
05:37 13.2 °C 7.9 °C 1021.6 hPa WSW 11.1 km/h 11.1 km/h 70 % 0.0 mm 0.0 W/m2 CLR
05:42 13.3 °C 7.7 °C 1021.6 hPa WSW 18.5 km/h 18.5 km/h 69 % 0.0 mm 0.0 W/m2 CLR
05:47 13.3 °C 7.8 °C 1021.6 hPa WSW 9.3 km/h 9.3 km/h 69 % 0.0 mm 0.0 W/m2 CLR
05:52 13.3 °C 7.8 °C 1021.6 hPa West 7.4 km/h 7.4 km/h 69 % 0.0 mm 0.0 W/m2 CLR
05:57 13.4 °C 7.8 °C 1021.6 hPa WSW 11.1 km/h 11.1 km/h 69 % 0.0 mm 0.0 W/m2 CLR
06:02 13.4 °C 7.9 °C 1021.6 hPa WSW 13.0 km/h 13.0 km/h 69 % 0.0 mm 0.0 W/m2 CLR
06:07 13.4 °C 7.8 °C 1021.6 hPa WSW 3.7 km/h 3.7 km/h 69 % 0.0 mm 0.0 W/m2 CLR
06:08 13.4 °C 7.8 °C 1021.6 hPa WSW 7.4 km/h 7.4 km/h 69 % 0.0 mm 0.0 W/m2 CLR
06:13 13.3 °C 7.9 °C 1021.9 hPa WSW 9.7 km/h 9.7 km/h 70 % 0.0 mm 0.0 W/m2 CLR
06:18 13.2 °C 7.9 °C 1021.9 hPa WSW 11.3 km/h 11.3 km/h 70 % 0.0 mm 0.0 W/m2 OVC
06:23 13.2 °C 8.0 °C 1021.9 hPa West 9.7 km/h 9.7 km/h 71 % 0.0 mm 0.0 W/m2 OVC
06:28 13.0 °C 7.9 °C 1021.9 hPa WSW 14.8 km/h 14.8 km/h 71 % 0.0 mm 0.0 W/m2 OVC
06:33 12.9 °C 7.9 °C 1021.9 hPa WSW 13.0 km/h 13.0 km/h 72 % 0.0 mm 5.0 W/m2 OVC
06:38 12.8 °C 7.8 °C 1021.9 hPa WSW 9.7 km/h 9.7 km/h 72 % 0.0 mm 7.0 W/m2 BKN
06:43 12.7 °C 7.9 °C 1021.9 hPa WSW 9.3 km/h 9.3 km/h 73 % 0.0 mm 11.0 W/m2 BKN
06:48 12.6 °C 7.9 °C 1021.9 hPa WSW 9.3 km/h 9.3 km/h 73 % 0.0 mm 14.0 W/m2 BKN
06:53 12.6 °C 7.9 °C 1021.9 hPa WSW 7.4 km/h 7.4 km/h 73 % 0.0 mm 16.0 W/m2 BKN
06:58 12.6 °C 8.1 °C 1022.2 hPa WSW 9.3 km/h 9.3 km/h 74 % 0.0 mm 19.0 W/m2 BKN
06:59 12.6 °C 8.1 °C 1022.2 hPa WSW 9.7 km/h 9.7 km/h 74 % 0.0 mm 19.0 W/m2 BKN
07:04 12.6 °C 8.1 °C 1022.2 hPa WSW 9.3 km/h 9.3 km/h 74 % 0.0 mm 25.0 W/m2 BKN
07:09 12.7 °C 8.0 °C 1022.2 hPa Calm     73 % 0.0 mm 35.0 W/m2 BKN
07:14 12.8 °C 8.1 °C 1022.2 hPa SW 9.3 km/h 9.3 km/h 73 % 0.0 mm 44.0 W/m2 BKN
07:19 12.9 °C 8.2 °C 1022.2 hPa SW 5.6 km/h 5.6 km/h 73 % 0.0 mm 54.0 W/m2 SCT
07:24 13.1 °C 8.1 °C 1022.2 hPa WSW 7.4 km/h 7.4 km/h 72 % 0.0 mm 67.0 W/m2 FEW
07:29 13.2 °C 8.2 °C 1022.2 hPa SW 3.7 km/h 3.7 km/h 72 % 0.0 mm 81.0 W/m2 FEW
07:34 13.3 °C 8.2 °C 1022.2 hPa SW 8.0 km/h 8.0 km/h 71 % 0.0 mm 95.0 W/m2 FEW
07:39 13.5 °C 8.1 °C 1022.2 hPa WSW 13.0 km/h 13.0 km/h 70 % 0.0 mm 107.0 W/m2 CLR
07:44 13.7 °C 8.1 °C 1022.2 hPa WSW 11.1 km/h 11.1 km/h 69 % 0.0 mm 123.0 W/m2 CLR
07:49 13.8 °C 8.2 °C 1022.2 hPa West 18.5 km/h 18.5 km/h 69 % 0.0 mm 139.0 W/m2 CLR
07:54 14.0 °C 8.4 °C 1022.2 hPa WSW 9.7 km/h 9.7 km/h 69 % 0.0 mm 158.0 W/m2 CLR
07:59 14.2 °C 8.3 °C 1022.2 hPa West 12.9 km/h 12.9 km/h 68 % 0.0 mm 174.0 W/m2 CLR
08:04 14.3 °C 8.0 °C 1022.6 hPa WSW 9.3 km/h 9.3 km/h 66 % 0.0 mm 193.0 W/m2 CLR
08:09 14.4 °C 8.1 °C 1022.6 hPa West 18.5 km/h 18.5 km/h 66 % 0.0 mm 209.0 W/m2 CLR
08:14 14.5 °C 8.2 °C 1022.6 hPa WSW 11.1 km/h 11.1 km/h 66 % 0.0 mm 225.0 W/m2 CLR
08:19 14.6 °C 8.1 °C 1022.6 hPa WSW 14.8 km/h 14.8 km/h 65 % 0.0 mm 241.0 W/m2 CLR
08:24 14.7 °C 8.2 °C 1022.6 hPa SW 14.8 km/h 14.8 km/h 65 % 0.0 mm 255.0 W/m2 CLR
08:29 14.8 °C 8.3 °C 1022.6 hPa West 9.3 km/h 9.3 km/h 65 % 0.0 mm 272.0 W/m2 CLR
08:34 14.9 °C 8.1 °C 1022.6 hPa West 13.0 km/h 13.0 km/h 64 % 0.0 mm 279.0 W/m2 CLR
08:39 15.1 °C 8.6 °C 1022.6 hPa WSW 11.3 km/h 11.3 km/h 65 % 0.0 mm 302.0 W/m2 CLR
08:44 15.2 °C 8.2 °C 1022.6 hPa WSW 13.0 km/h 13.0 km/h 63 % 0.0 mm 316.0 W/m2 CLR
08:49 15.3 °C 8.3 °C 1022.6 hPa NW 18.5 km/h 18.5 km/h 63 % 0.0 mm 336.0 W/m2 CLR
08:54 15.3 °C 8.1 °C 1022.6 hPa West 17.7 km/h 17.7 km/h 62 % 0.0 mm 352.0 W/m2 CLR
08:59 15.4 °C 8.4 °C 1022.6 hPa West 24.1 km/h 24.1 km/h 63 % 0.0 mm 366.0 W/m2 CLR
09:04 15.6 °C 8.6 °C 1022.6 hPa West 18.5 km/h 18.5 km/h 63 % 0.0 mm 380.0 W/m2 CLR
09:09 15.8 °C 8.8 °C 1022.6 hPa NW 18.5 km/h 18.5 km/h 63 % 0.0 mm 396.0 W/m2 CLR
09:14 15.9 °C 8.4 °C 1022.6 hPa West 20.4 km/h 20.4 km/h 61 % 0.0 mm 413.0 W/m2 CLR
09:19 15.9 °C 8.4 °C 1022.6 hPa WNW 16.7 km/h 16.7 km/h 61 % 0.0 mm 429.0 W/m2 CLR
09:24 16.2 °C 8.9 °C 1022.9 hPa WNW 18.5 km/h 18.5 km/h 62 % 0.0 mm 443.0 W/m2 CLR
09:29 16.4 °C 8.6 °C 1022.9 hPa West 18.5 km/h 18.5 km/h 60 % 0.0 mm 461.0 W/m2 CLR
09:35 16.6 °C 9.0 °C 1022.9 hPa West 25.9 km/h 25.9 km/h 61 % 0.0 mm 475.0 W/m2 CLR
09:40 16.6 °C 8.8 °C 1022.9 hPa West 18.5 km/h 18.5 km/h 60 % 0.0 mm 489.0 W/m2 CLR
09:45 16.8 °C 9.0 °C 1022.9 hPa West 24.1 km/h 24.1 km/h 60 % 0.0 mm 504.0 W/m2 CLR
09:50 16.9 °C 8.9 °C 1022.9 hPa West 9.7 km/h 9.7 km/h 59 % 0.0 mm 519.0 W/m2 CLR
09:55 16.9 °C 8.9 °C 1022.9 hPa NW 18.5 km/h 18.5 km/h 59 % 0.0 mm 536.0 W/m2 CLR
09:56 16.9 °C 8.8 °C 1022.9 hPa WNW 18.5 km/h 18.5 km/h 59 % 0.0 mm 538.0 W/m2 CLR
10:01 17.0 °C 9.2 °C 1022.9 hPa NW 9.7 km/h 9.7 km/h 60 % 0.0 mm 552.0 W/m2 CLR
10:06 17.2 °C 8.9 °C 1022.9 hPa WNW 22.2 km/h 22.2 km/h 58 % 0.0 mm 564.0 W/m2 CLR
10:11 17.2 °C 8.8 °C 1022.9 hPa West 18.5 km/h 18.5 km/h 58 % 0.0 mm 578.0 W/m2 CLR
10:16 17.2 °C 9.4 °C 1022.9 hPa NNW 22.2 km/h 22.2 km/h 60 % 0.0 mm 594.0 W/m2 CLR
10:21 17.4 °C 9.3 °C 1022.9 hPa West 5.6 km/h 5.6 km/h 59 % 0.0 mm 608.0 W/m2 CLR
10:22 17.5 °C 9.4 °C 1022.9 hPa WNW 7.4 km/h 7.4 km/h 59 % 0.0 mm 612.0 W/m2 CLR
10:28 17.5 °C 9.2 °C 1022.9 hPa NW 19.3 km/h 19.3 km/h 58 % 0.0 mm 628.0 W/m2 CLR
10:33 17.7 °C 9.3 °C 1022.9 hPa WNW 20.9 km/h 20.9 km/h 58 % 0.0 mm 640.0 W/m2 CLR
10:38 17.8 °C 9.4 °C 1022.9 hPa NW 20.4 km/h 20.4 km/h 58 % 0.0 mm 656.0 W/m2 CLR
10:43 17.8 °C 9.4 °C 1022.9 hPa West 12.9 km/h 12.9 km/h 58 % 0.0 mm 668.0 W/m2 CLR
10:48 17.8 °C 9.4 °C 1022.6 hPa West 8.0 km/h 8.0 km/h 58 % 0.0 mm 677.0 W/m2 CLR
10:53 17.9 °C 9.6 °C 1022.6 hPa WNW 11.1 km/h 11.1 km/h 58 % 0.0 mm 689.0 W/m2 CLR
10:58 18.2 °C 9.6 °C 1022.6 hPa WSW 9.3 km/h 9.3 km/h 57 % 0.0 mm 703.0 W/m2 CLR
11:03 18.4 °C 10.2 °C 1022.6 hPa NW 12.9 km/h 12.9 km/h 59 % 0.0 mm 717.0 W/m2 CLR
11:08 18.8 °C 10.1 °C 1022.6 hPa NNW 14.5 km/h 14.5 km/h 57 % 0.0 mm 728.0 W/m2 CLR
11:13 19.1 °C 10.1 °C 1022.6 hPa West 11.1 km/h 11.1 km/h 56 % 0.0 mm 740.0 W/m2 CLR
11:18 19.1 °C 10.4 °C 1022.6 hPa NW 16.7 km/h 16.7 km/h 57 % 0.0 mm 751.0 W/m2 CLR
11:23 19.0 °C 10.3 °C 1022.2 hPa NW 1.9 km/h 1.9 km/h 57 % 0.0 mm 761.0 W/m2 CLR
11:28 19.2 °C 10.4 °C 1022.2 hPa NW 5.6 km/h 5.6 km/h 57 % 0.0 mm 772.0 W/m2 CLR
11:38 19.6 °C 10.3 °C 1022.2 hPa NW 5.6 km/h 5.6 km/h 55 % 0.0 mm 793.0 W/m2 CLR
11:43 19.6 °C 10.3 °C 1022.2 hPa WSW 13.0 km/h 13.0 km/h 55 % 0.0 mm 805.0 W/m2 CLR
11:48 19.6 °C 10.6 °C 1022.2 hPa WSW 5.6 km/h 5.6 km/h 56 % 0.0 mm 814.0 W/m2 CLR
11:53 19.9 °C 10.6 °C 1022.2 hPa West 9.3 km/h 9.3 km/h 55 % 0.0 mm 821.0 W/m2 CLR
11:58 20.0 °C 10.7 °C 1022.2 hPa SW 11.1 km/h 11.1 km/h 55 % 0.0 mm 831.0 W/m2 CLR
12:03 20.2 °C 10.8 °C 1022.2 hPa WNW 9.7 km/h 9.7 km/h 55 % 0.0 mm 840.0 W/m2 CLR
12:08 20.2 °C 10.9 °C 1022.2 hPa West 8.0 km/h 8.0 km/h 55 % 0.0 mm 851.0 W/m2 CLR
12:13 20.4 °C 11.1 °C 1021.9 hPa Calm     55 % 0.0 mm 856.0 W/m2 CLR
12:18 20.8 °C 10.8 °C 1021.9 hPa SSW 4.8 km/h 4.8 km/h 53 % 0.0 mm 860.0 W/m2 CLR
12:23 21.1 °C 11.4 °C 1021.9 hPa West 7.4 km/h 7.4 km/h 54 % 0.0 mm 870.0 W/m2 CLR
12:28 20.8 °C 10.9 °C 1021.9 hPa West 6.4 km/h 6.4 km/h 53 % 0.0 mm 882.0 W/m2 CLR
12:33 21.1 °C 11.2 °C 1021.9 hPa West 1.9 km/h   53 % 0.0 mm 884.0 W/m2 CLR
12:38 21.1 °C 10.6 °C 1021.6 hPa Calm     51 % 0.0 mm 893.0 W/m2 CLR
12:43 21.3 °C 11.3 °C 1021.6 hPa Calm     53 % 0.0 mm 902.0 W/m2 CLR
12:48 21.7 °C 10.8 °C 1021.6 hPa WSW 7.4 km/h 7.4 km/h 50 % 0.0 mm 907.0 W/m2 CLR
12:53 21.7 °C 11.4 °C 1021.6 hPa WSW 8.0 km/h 8.0 km/h 52 % 0.0 mm 912.0 W/m2 CLR
12:58 21.8 °C 10.9 °C 1021.2 hPa SW 13.0 km/h 13.0 km/h 50 % 0.0 mm 918.0 W/m2 CLR
13:03 21.8 °C 10.9 °C 1021.2 hPa SW 5.6 km/h 5.6 km/h 50 % 0.0 mm 923.0 W/m2 CLR
13:08 22.2 °C 11.9 °C 1021.2 hPa WSW 1.9 km/h 1.9 km/h 52 % 0.0 mm 928.0 W/m2 CLR
13:13 22.6 °C 11.7 °C 1021.2 hPa WSW 5.6 km/h 5.6 km/h 50 % 0.0 mm 933.0 W/m2 CLR
13:18 23.1 °C 12.1 °C 1021.2 hPa NNW 14.8 km/h 14.8 km/h 50 % 0.0 mm 933.0 W/m2 CLR
13:23 23.1 °C 11.5 °C 1021.2 hPa WNW 9.3 km/h 9.3 km/h 48 % 0.0 mm 935.0 W/m2 CLR
13:28 23.2 °C 11.6 °C 1021.2 hPa NNE 5.6 km/h   48 % 0.0 mm 940.0 W/m2 CLR
13:33 23.4 °C 11.8 °C 1020.9 hPa North 5.6 km/h 5.6 km/h 48 % 0.0 mm 942.0 W/m2 CLR
13:38 23.2 °C 11.3 °C 1020.9 hPa Calm     47 % 0.0 mm 944.0 W/m2 CLR
13:43 23.1 °C 11.5 °C 1020.9 hPa East 7.4 km/h 7.4 km/h 48 % 0.0 mm 946.0 W/m2 CLR
13:48 23.2 °C 11.6 °C 1020.9 hPa Calm     48 % 0.0 mm 947.0 W/m2 CLR
13:53 23.4 °C 11.8 °C 1020.5 hPa Calm     48 % 0.0 mm 949.0 W/m2 CLR
13:58 23.9 °C 12.2 °C 1020.5 hPa West 3.2 km/h 3.2 km/h 48 % 0.0 mm 951.0 W/m2 CLR
14:03 24.2 °C 12.2 °C 1020.5 hPa SE 5.6 km/h 5.6 km/h 47 % 0.0 mm 949.0 W/m2 CLR
14:08 24.2 °C 12.2 °C 1020.5 hPa ENE 9.3 km/h 9.3 km/h 47 % 0.0 mm 949.0 W/m2 CLR
14:13 24.3 °C 12.6 °C 1020.5 hPa Calm     48 % 0.0 mm 951.0 W/m2 CLR
14:18 24.7 °C 12.6 °C 1020.2 hPa SE 5.6 km/h 5.6 km/h 47 % 0.0 mm 949.0 W/m2 CLR
14:23 24.8 °C 12.1 °C 1020.2 hPa South 5.6 km/h   45 % 0.0 mm 949.0 W/m2 CLR
14:28 25.1 °C 12.0 °C 1020.2 hPa ESE 7.4 km/h 7.4 km/h 44 % 0.0 mm 946.0 W/m2 CLR
14:33 24.6 °C 11.6 °C 1020.2 hPa ENE 7.4 km/h   44 % 0.0 mm 942.0 W/m2 CLR
14:38 24.4 °C 11.7 °C 1019.9 hPa Calm     45 % 0.0 mm 939.0 W/m2 CLR
14:43 24.6 °C 12.2 °C 1019.9 hPa Calm     46 % 0.0 mm 933.0 W/m2 CLR
14:48 24.8 °C 11.7 °C 1019.9 hPa Calm     44 % 0.0 mm 932.0 W/m2 CLR
14:53 24.9 °C 11.8 °C 1019.9 hPa Calm     44 % 0.0 mm 928.0 W/m2 CLR
14:58 25.3 °C 11.8 °C 1019.9 hPa Calm     43 % 0.0 mm 925.0 W/m2 CLR
15:03 25.4 °C 12.3 °C 1019.5 hPa ESE 5.6 km/h 5.6 km/h 44 % 0.0 mm 919.0 W/m2 CLR
15:08 25.6 °C 12.1 °C 1019.5 hPa ESE 8.0 km/h 8.0 km/h 43 % 0.0 mm 916.0 W/m2 CLR
15:13 25.7 °C 12.2 °C 1019.5 hPa ENE 13.0 km/h 13.0 km/h 43 % 0.0 mm 909.0 W/m2 CLR
15:18 25.8 °C 11.9 °C 1019.5 hPa Calm     42 % 0.0 mm 904.0 W/m2 CLR
15:23 26.0 °C 12.8 °C 1019.5 hPa East 14.8 km/h 14.8 km/h 44 % 0.0 mm 896.0 W/m2 CLR
15:28 25.9 °C 12.1 °C 1019.2 hPa NNE 3.7 km/h   42 % 0.0 mm 891.0 W/m2 CLR
15:33 26.1 °C 11.8 °C 1019.2 hPa North 13.0 km/h   41 % 0.0 mm 886.0 W/m2 CLR
15:38 26.2 °C 12.3 °C 1019.2 hPa Calm     42 % 0.0 mm 884.0 W/m2 CLR
15:43 26.7 °C 12.3 °C 1019.2 hPa ENE 9.7 km/h 9.7 km/h 41 % 0.0 mm 874.0 W/m2 CLR
15:48 26.6 °C 12.3 °C 1019.2 hPa ENE 11.1 km/h 11.1 km/h 41 % 0.0 mm 865.0 W/m2 CLR
15:53 26.4 °C 11.7 °C 1019.2 hPa NNE 9.3 km/h   40 % 0.0 mm 854.0 W/m2 CLR
15:58 26.4 °C 12.1 °C 1019.2 hPa NE 7.4 km/h 7.4 km/h 41 % 0.0 mm 846.0 W/m2 CLR
16:03 26.6 °C 12.6 °C 1019.2 hPa ENE 5.6 km/h 5.6 km/h 42 % 0.0 mm 838.0 W/m2 CLR
16:08 26.6 °C 11.5 °C 1019.2 hPa ENE 13.0 km/h 13.0 km/h 39 % 0.0 mm 828.0 W/m2 CLR
16:13 26.7 °C 12.4 °C 1018.8 hPa NE 5.6 km/h 5.6 km/h 41 % 0.0 mm 819.0 W/m2 CLR
16:18 26.7 °C 12.0 °C 1018.8 hPa ENE 13.0 km/h 13.0 km/h 40 % 0.0 mm 812.0 W/m2 CLR
16:23 26.9 °C 12.5 °C 1018.8 hPa North 8.0 km/h 8.0 km/h 41 % 0.0 mm 803.0 W/m2 CLR
16:24 26.9 °C 12.6 °C 1018.8 hPa North 11.1 km/h 11.1 km/h 41 % 0.0 mm 802.0 W/m2 CLR
16:29 27.1 °C 12.3 °C 1018.8 hPa NNE 13.0 km/h 13.0 km/h 40 % 0.0 mm 789.0 W/m2 CLR
16:34 27.0 °C 11.9 °C 1018.8 hPa NE 11.1 km/h 11.1 km/h 39 % 0.0 mm 779.0 W/m2 CLR
16:39 27.0 °C 11.9 °C 1018.8 hPa NNE 11.1 km/h 11.1 km/h 39 % 0.0 mm 768.0 W/m2 CLR
16:44 27.1 °C 12.3 °C 1018.8 hPa NNE 13.0 km/h 13.0 km/h 40 % 0.0 mm 759.0 W/m2 CLR
16:49 27.1 °C 11.6 °C 1018.5 hPa NE 7.4 km/h 7.4 km/h 38 % 0.0 mm 747.0 W/m2 CLR
16:54 27.1 °C 11.5 °C 1018.5 hPa North 7.4 km/h 7.4 km/h 38 % 0.0 mm 737.0 W/m2 CLR
16:59 27.1 °C 11.5 °C 1018.5 hPa NE 7.4 km/h 7.4 km/h 38 % 0.0 mm 722.0 W/m2 CLR
17:04 27.0 °C 11.9 °C 1018.5 hPa NE 9.3 km/h 9.3 km/h 39 % 0.0 mm 710.0 W/m2 CLR
17:09 27.2 °C 11.7 °C 1018.2 hPa NNE 11.1 km/h 11.1 km/h 38 % 0.0 mm 700.0 W/m2 CLR
17:14 27.3 °C 12.2 °C 1018.2 hPa ENE 11.1 km/h 11.1 km/h 39 % 0.0 mm 686.0 W/m2 CLR
17:19 27.4 °C 11.9 °C 1018.2 hPa NE 11.1 km/h 11.1 km/h 38 % 0.0 mm 673.0 W/m2 CLR
17:24 27.6 °C 12.4 °C 1018.2 hPa NE 5.6 km/h 5.6 km/h 39 % 0.0 mm 657.0 W/m2 CLR
17:29 27.6 °C 12.0 °C 1018.2 hPa ENE 13.0 km/h 13.0 km/h 38 % 0.0 mm 640.0 W/m2 CLR
17:34 27.7 °C 11.7 °C 1018.2 hPa North 13.0 km/h 13.0 km/h 37 % 0.0 mm 631.0 W/m2 CLR
17:39 27.6 °C 11.6 °C 1018.2 hPa ENE 13.0 km/h 13.0 km/h 37 % 0.0 mm 619.0 W/m2 CLR
17:44 27.8 °C 12.2 °C 1017.8 hPa North 1.9 km/h   38 % 0.0 mm 603.0 W/m2 CLR
17:49 27.8 °C 11.8 °C 1017.8 hPa North 11.1 km/h 11.1 km/h 37 % 0.0 mm 589.0 W/m2 CLR
17:54 27.9 °C 11.9 °C 1017.8 hPa NE 5.6 km/h   37 % 0.0 mm 575.0 W/m2 CLR
17:55 27.9 °C 11.9 °C 1017.8 hPa NE 6.4 km/h 6.4 km/h 37 % 0.0 mm 571.0 W/m2 CLR
18:00 28.2 °C 11.7 °C 1017.8 hPa NNW 9.3 km/h 9.3 km/h 36 % 0.0 mm 557.0 W/m2 CLR
18:05 28.2 °C 11.3 °C 1017.8 hPa Calm     35 % 0.0 mm 545.0 W/m2 CLR
18:10 28.3 °C 11.3 °C 1017.8 hPa NE 14.8 km/h 14.8 km/h 35 % 0.0 mm 529.0 W/m2 CLR
18:15 28.2 °C 11.7 °C 1017.8 hPa NE 11.1 km/h 11.1 km/h 36 % 0.0 mm 513.0 W/m2 CLR
18:20 28.2 °C 11.7 °C 1017.8 hPa North 1.9 km/h   36 % 0.0 mm 501.0 W/m2 CLR
18:25 27.8 °C 13.4 °C 1017.8 hPa ENE 14.8 km/h 14.8 km/h 41 % 0.0 mm 483.0 W/m2 CLR
18:30 27.5 °C 13.4 °C 1017.5 hPa East 9.3 km/h 9.3 km/h 42 % 0.0 mm 466.0 W/m2 CLR
18:35 27.3 °C 13.6 °C 1017.5 hPa ENE 7.4 km/h 7.4 km/h 43 % 0.0 mm 448.0 W/m2 CLR
18:40 26.9 °C 12.9 °C 1017.5 hPa ESE 9.3 km/h 9.3 km/h 42 % 0.0 mm 432.0 W/m2 CLR
18:45 26.8 °C 13.2 °C 1017.5 hPa Calm     43 % 0.0 mm 417.0 W/m2 CLR
18:50 26.9 °C 13.3 °C 1017.5 hPa ESE 7.4 km/h 7.4 km/h 43 % 0.0 mm 401.0 W/m2 CLR
18:55 26.9 °C 13.3 °C 1017.5 hPa ENE 9.3 km/h 9.3 km/h 43 % 0.0 mm 387.0 W/m2 CLR
19:00 27.0 °C 13.3 °C 1017.5 hPa Calm     43 % 0.0 mm 371.0 W/m2 CLR
19:05 27.0 °C 13.3 °C 1017.5 hPa East 9.3 km/h 9.3 km/h 43 % 0.0 mm 359.0 W/m2 CLR
19:10 26.8 °C 13.8 °C 1017.5 hPa East 9.3 km/h 9.3 km/h 45 % 0.0 mm 343.0 W/m2 CLR
19:15 26.5 °C 13.6 °C 1017.5 hPa ESE 9.3 km/h 9.3 km/h 45 % 0.0 mm 323.0 W/m2 CLR
19:20 26.3 °C 13.4 °C 1017.5 hPa SE 9.3 km/h 9.3 km/h 45 % 0.0 mm 308.0 W/m2 CLR
19:23 26.3 °C 13.4 °C 1017.5 hPa SE 5.6 km/h 5.6 km/h 45 % 0.0 mm 297.0 W/m2 CLR
19:28 26.3 °C 13.4 °C 1017.5 hPa SE 6.4 km/h 6.4 km/h 45 % 0.0 mm 283.0 W/m2 CLR
19:33 26.1 °C 14.6 °C 1017.5 hPa ESE 19.3 km/h 19.3 km/h 49 % 0.0 mm 267.0 W/m2 CLR
19:38 25.8 °C 14.6 °C 1017.5 hPa SE 13.0 km/h 13.0 km/h 50 % 0.0 mm 251.0 W/m2 CLR
19:43 25.7 °C 14.4 °C 1017.5 hPa SE 14.8 km/h 14.8 km/h 50 % 0.0 mm 237.0 W/m2 CLR
19:48 25.6 °C 14.7 °C 1017.5 hPa ESE 14.8 km/h 14.8 km/h 51 % 0.0 mm 218.0 W/m2 CLR
19:53 25.6 °C 14.7 °C 1017.5 hPa ESE 16.7 km/h 16.7 km/h 51 % 0.0 mm 202.0 W/m2 CLR
19:58 25.4 °C 14.6 °C 1017.5 hPa SE 14.8 km/h 14.8 km/h 51 % 0.0 mm 185.0 W/m2 CLR
20:03 25.4 °C 14.5 °C 1017.5 hPa SE 7.4 km/h 7.4 km/h 51 % 0.0 mm 169.0 W/m2 CLR
20:08 25.4 °C 14.8 °C 1017.5 hPa East 16.7 km/h 16.7 km/h 52 % 0.0 mm 149.0 W/m2 CLR
20:09 25.4 °C 15.1 °C 1017.5 hPa ESE 14.8 km/h 14.8 km/h 53 % 0.0 mm 148.0 W/m2 CLR
20:14 25.2 °C 15.3 °C 1017.5 hPa SE 9.3 km/h 9.3 km/h 54 % 0.0 mm 132.0 W/m2 CLR
20:19 25.1 °C 15.2 °C 1017.5 hPa SE 13.0 km/h 13.0 km/h 54 % 0.0 mm 116.0 W/m2 CLR
20:24 25.1 °C 15.1 °C 1017.5 hPa ESE 7.4 km/h 7.4 km/h 54 % 0.0 mm 98.0 W/m2 CLR
20:29 24.9 °C 14.9 °C 1017.8 hPa East 16.7 km/h 16.7 km/h 54 % 0.0 mm 84.0 W/m2 CLR
20:34 24.8 °C 15.4 °C 1017.8 hPa East 11.1 km/h 11.1 km/h 56 % 0.0 mm 72.0 W/m2 FEW
20:39 24.7 °C 15.9 °C 1017.8 hPa ESE 11.3 km/h 11.3 km/h 58 % 0.0 mm 62.0 W/m2 SCT
20:44 24.4 °C 16.2 °C 1017.8 hPa SE 13.0 km/h 13.0 km/h 60 % 0.0 mm 35.0 W/m2 BKN
20:49 24.3 °C 16.0 °C 1017.8 hPa ESE 7.4 km/h 7.4 km/h 60 % 0.0 mm 35.0 W/m2 BKN
20:54 24.2 °C 16.2 °C 1017.8 hPa SE 5.6 km/h 5.6 km/h 61 % 0.0 mm 28.0 W/m2 BKN
20:59 24.1 °C 16.3 °C 1017.8 hPa ESE 7.4 km/h 7.4 km/h 62 % 0.0 mm 21.0 W/m2 BKN
21:04 23.8 °C 16.4 °C 1017.8 hPa East 9.3 km/h 9.3 km/h 63 % 0.0 mm 16.0 W/m2 BKN
21:09 23.6 °C 16.4 °C 1017.8 hPa ESE 11.3 km/h 11.3 km/h 64 % 0.0 mm 12.0 W/m2 BKN
21:14 23.4 °C 16.4 °C 1017.8 hPa SE 11.1 km/h 11.1 km/h 65 % 0.0 mm 11.0 W/m2 BKN
21:19 23.2 °C 16.4 °C 1017.8 hPa ESE 11.1 km/h 11.1 km/h 66 % 0.0 mm 9.0 W/m2 BKN
21:24 22.9 °C 16.5 °C 1017.8 hPa East 9.3 km/h 9.3 km/h 67 % 0.0 mm 7.0 W/m2 BKN
21:29 22.8 °C 16.6 °C 1018.2 hPa ESE 9.3 km/h 9.3 km/h 68 % 0.0 mm 0.0 W/m2 OVC
21:30 22.8 °C 16.6 °C 1018.2 hPa ESE 9.3 km/h 9.3 km/h 68 % 0.0 mm 0.0 W/m2 OVC
21:35 22.6 °C 16.3 °C 1018.2 hPa Calm     68 % 0.0 mm 0.0 W/m2 OVC
21:40 22.4 °C 16.4 °C 1018.2 hPa Calm     69 % 0.0 mm 0.0 W/m2 OVC
21:45 22.2 °C 16.5 °C 1018.2 hPa SE 4.8 km/h 4.8 km/h 70 % 0.0 mm 0.0 W/m2 CLR
21:50 22.0 °C 16.3 °C 1018.5 hPa SE 7.4 km/h 7.4 km/h 70 % 0.0 mm 0.0 W/m2 CLR
21:55 21.8 °C 16.3 °C 1018.5 hPa SE 11.1 km/h 11.1 km/h 71 % 0.0 mm 0.0 W/m2 CLR
22:00 21.6 °C 16.3 °C 1018.5 hPa East 9.3 km/h 9.3 km/h 72 % 0.0 mm 0.0 W/m2 CLR
22:05 21.5 °C 16.2 °C 1018.5 hPa East 5.6 km/h   72 % 0.0 mm 0.0 W/m2 CLR
22:10 21.4 °C 16.3 °C 1018.5 hPa East 4.8 km/h 4.8 km/h 73 % 0.0 mm 0.0 W/m2 CLR
22:15 21.3 °C 16.3 °C 1018.5 hPa East 4.8 km/h 4.8 km/h 73 % 0.0 mm 0.0 W/m2 CLR
22:20 21.2 °C 16.3 °C 1018.5 hPa East 5.6 km/h 5.6 km/h 74 % 0.0 mm 0.0 W/m2 CLR
22:25 21.0 °C 16.4 °C 1018.5 hPa East 4.8 km/h 4.8 km/h 75 % 0.0 mm 0.0 W/m2 CLR
22:30 20.8 °C 16.2 °C 1018.5 hPa Calm     75 % 0.0 mm 0.0 W/m2 CLR
22:35 20.7 °C 16.3 °C 1018.8 hPa ESE 3.7 km/h   76 % 0.0 mm 0.0 W/m2 CLR
22:40 20.5 °C 16.3 °C 1018.8 hPa East 5.6 km/h 5.6 km/h 77 % 0.0 mm 0.0 W/m2 CLR
22:45 20.4 °C 16.2 °C 1018.8 hPa East 5.6 km/h 5.6 km/h 77 % 0.0 mm 0.0 W/m2 CLR
22:50 20.3 °C 16.4 °C 1018.5 hPa ESE 7.4 km/h 7.4 km/h 78 % 0.0 mm 0.0 W/m2 CLR
22:55 20.3 °C 16.4 °C 1018.8 hPa Calm     78 % 0.0 mm 0.0 W/m2 CLR
23:00 20.3 °C 16.3 °C 1018.8 hPa Calm     78 % 0.0 mm 0.0 W/m2 CLR
23:05 20.2 °C 16.3 °C 1018.8 hPa Calm     78 % 0.0 mm 0.0 W/m2 CLR
23:10 20.2 °C 16.2 °C 1018.8 hPa Calm     78 % 0.0 mm 0.0 W/m2 CLR
23:15 20.1 °C 16.2 °C 1018.8 hPa Calm     78 % 0.0 mm 0.0 W/m2 CLR
23:20 20.0 °C 16.2 °C 1018.8 hPa Calm     79 % 0.0 mm 0.0 W/m2 CLR
23:25 19.9 °C 16.1 °C 1018.8 hPa Calm     79 % 0.0 mm 0.0 W/m2 CLR
23:30 19.7 °C 16.2 °C 1018.8 hPa Calm     80 % 0.0 mm 0.0 W/m2 CLR
23:35 19.7 °C 16.1 °C 1018.8 hPa Calm     80 % 0.0 mm 0.0 W/m2 CLR
23:40 19.6 °C 16.2 °C 1018.8 hPa Calm     81 % 0.0 mm 0.0 W/m2 CLR
23:45 19.5 °C 16.2 °C 1018.5 hPa Calm     81 % 0.0 mm 0.0 W/m2 CLR
23:50 19.4 °C 16.1 °C 1018.5 hPa Calm     81 % 0.0 mm 0.0 W/m2 CLR
23:55 19.4 °C 16.1 °C 1018.5 hPa Calm     81 % 0.0 mm 0.0 W/m2 CLR
Lo Temps de Massalio
Compliments of Weather Underground - 1.25 mb